createdAt,value
2022-12-03T00:00:23.022Z,81.51
2022-12-03T00:02:51.168Z,81.70
2022-12-03T00:05:18.959Z,81.88
2022-12-03T00:07:49.475Z,81.50
2022-12-03T00:10:17.188Z,81.40
2022-12-03T00:12:44.882Z,81.70
2022-12-03T00:15:12.519Z,82.04
2022-12-03T00:17:40.148Z,81.38
2022-12-03T00:20:09.566Z,81.28
2022-12-03T00:22:37.168Z,81.45
2022-12-03T00:25:05.114Z,81.70
2022-12-03T00:27:32.772Z,81.62
2022-12-03T00:30:00.437Z,81.41
2022-12-03T00:32:28.408Z,82.05
2022-12-03T00:34:56.236Z,81.92
2022-12-03T00:37:23.930Z,81.86
2022-12-03T00:39:51.573Z,81.79
2022-12-03T00:42:19.201Z,81.52
2022-12-03T00:44:48.297Z,81.30
2022-12-03T00:47:15.947Z,81.72
2022-12-03T00:49:43.621Z,81.88
2022-12-03T00:52:11.247Z,81.84
2022-12-03T00:54:38.863Z,81.08
2022-12-03T00:57:07.202Z,81.09
2022-12-03T00:59:34.863Z,82.19
2022-12-03T01:02:02.555Z,81.31
2022-12-03T01:04:30.325Z,81.59
2022-12-03T01:06:57.936Z,81.25
2022-12-03T01:09:29.522Z,81.93
2022-12-03T01:11:57.153Z,81.60
2022-12-03T01:14:24.726Z,81.32
2022-12-03T01:16:52.306Z,81.68
2022-12-03T01:19:20.122Z,81.90
2022-12-03T01:21:48.087Z,81.44
2022-12-03T01:24:15.656Z,81.59
2022-12-03T01:26:43.261Z,81.21
2022-12-03T01:29:10.854Z,81.62
2022-12-03T01:31:56.652Z,81.18
2022-12-03T01:34:25.252Z,81.13
2022-12-03T01:36:53.613Z,81.68
2022-12-03T01:39:21.217Z,81.74
2022-12-03T01:41:48.770Z,80.83
2022-12-03T01:44:16.697Z,81.21
2022-12-03T01:46:45.041Z,81.69
2022-12-03T01:49:12.684Z,81.38
2022-12-03T01:51:40.273Z,81.85
2022-12-03T01:54:08.239Z,81.20
2022-12-03T01:56:36.245Z,81.36
2022-12-03T01:59:03.878Z,81.21
2022-12-03T02:01:31.564Z,81.74
2022-12-03T02:03:59.316Z,81.41
2022-12-03T02:06:26.916Z,81.45
2022-12-03T02:09:00.159Z,81.50
2022-12-03T02:11:27.799Z,81.02
2022-12-03T02:13:55.405Z,81.11
2022-12-03T02:16:23.078Z,81.82
2022-12-03T02:18:50.720Z,81.03
2022-12-03T02:21:18.679Z,81.10
2022-12-03T02:23:46.310Z,81.67
2022-12-03T02:26:13.917Z,80.90
2022-12-03T02:28:41.509Z,81.21
2022-12-03T02:31:09.179Z,81.14
2022-12-03T02:33:37.219Z,81.59
2022-12-03T02:36:05.307Z,81.77
2022-12-03T02:38:33.297Z,81.52
2022-12-03T02:41:00.880Z,81.13
2022-12-03T02:43:27.416Z,81.37
2022-12-03T02:45:55.416Z,81.60
2022-12-03T02:48:24.710Z,81.15
2022-12-03T02:50:52.303Z,82.01
2022-12-03T02:53:19.889Z,81.44
2022-12-03T02:55:47.450Z,81.66
2022-12-03T02:58:15.404Z,81.53
2022-12-03T03:00:47.727Z,81.51
2022-12-03T03:03:15.355Z,81.35
2022-12-03T03:05:42.954Z,81.38
2022-12-03T03:08:10.669Z,81.65
2022-12-03T03:10:38.726Z,81.20
2022-12-03T03:13:08.155Z,80.90
2022-12-03T03:15:35.888Z,81.30
2022-12-03T03:18:03.443Z,81.47
2022-12-03T03:20:30.987Z,81.15
2022-12-03T03:22:59.301Z,81.13
2022-12-03T03:25:26.882Z,81.62
2022-12-03T03:27:54.467Z,81.51
2022-12-03T03:30:22.063Z,81.78
2022-12-03T03:32:49.609Z,81.89
2022-12-03T03:35:18.473Z,81.43
2022-12-03T03:37:46.070Z,81.12
2022-12-03T03:40:13.917Z,82.10
2022-12-03T03:42:41.474Z,81.64
2022-12-03T03:45:09.051Z,81.07
2022-12-03T03:47:37.087Z,81.66
2022-12-03T03:50:05.510Z,81.82
2022-12-03T03:52:33.100Z,81.55
2022-12-03T03:55:00.677Z,81.56
2022-12-03T03:57:28.215Z,81.95
2022-12-03T03:59:56.151Z,81.40
2022-12-03T04:02:23.706Z,82.02
2022-12-03T04:04:51.976Z,81.13
2022-12-03T04:07:19.760Z,81.46
2022-12-03T04:09:47.329Z,82.04
2022-12-03T04:12:32.837Z,81.08
2022-12-03T04:15:01.760Z,80.95
2022-12-03T04:17:29.364Z,81.06
2022-12-03T04:19:56.957Z,81.33
2022-12-03T04:22:41.723Z,81.54
2022-12-03T04:25:27.249Z,81.66
2022-12-03T04:28:12.194Z,81.58
2022-12-03T04:30:39.901Z,81.59
2022-12-03T04:33:25.110Z,81.15
2022-12-03T04:35:52.790Z,81.64
2022-12-03T04:38:20.386Z,81.78
2022-12-03T04:41:04.378Z,81.50
2022-12-03T04:43:32.286Z,81.03
2022-12-03T04:45:59.912Z,81.40
2022-12-03T04:48:27.608Z,81.48
2022-12-03T04:50:55.204Z,81.20
2022-12-03T04:53:22.773Z,81.74
2022-12-03T04:55:50.794Z,81.97
2022-12-03T04:58:18.365Z,81.46
2022-12-03T05:00:45.957Z,81.08
2022-12-03T05:03:13.584Z,81.28
2022-12-03T05:05:41.613Z,80.84
2022-12-03T05:08:09.961Z,81.23
2022-12-03T05:10:37.615Z,81.26
2022-12-03T05:13:05.213Z,81.11
2022-12-03T05:15:32.769Z,80.76
2022-12-03T05:18:01.768Z,81.08
2022-12-03T05:20:51.510Z,81.30
2022-12-03T05:23:20.997Z,81.25
2022-12-03T05:25:48.567Z,81.26
2022-12-03T05:28:22.316Z,81.79
2022-12-03T05:30:49.942Z,81.76
2022-12-03T05:33:17.554Z,81.54
2022-12-03T05:35:45.143Z,80.96
2022-12-03T05:38:12.682Z,81.67
2022-12-03T05:40:42.163Z,81.78
2022-12-03T05:43:09.292Z,80.75
2022-12-03T05:45:36.901Z,81.31
2022-12-03T05:48:04.454Z,81.76
2022-12-03T05:50:32.355Z,81.07
2022-12-03T05:53:01.711Z,81.36
2022-12-03T05:55:29.696Z,81.47
2022-12-03T05:57:57.297Z,81.31
2022-12-03T06:00:24.901Z,81.12
2022-12-03T06:02:52.527Z,81.27
2022-12-03T06:05:21.657Z,81.46
2022-12-03T06:07:49.679Z,81.14
2022-12-03T06:10:17.309Z,81.13
2022-12-03T06:12:45.239Z,80.91
2022-12-03T06:15:12.785Z,81.08
2022-12-03T06:17:41.970Z,80.84
2022-12-03T06:20:09.923Z,81.26
2022-12-03T06:22:37.464Z,81.55
2022-12-03T06:25:06.927Z,81.50
2022-12-03T06:27:35.022Z,81.77
2022-12-03T06:30:02.594Z,81.63
2022-12-03T06:32:30.526Z,82.12
2022-12-03T06:34:58.505Z,81.54
2022-12-03T06:37:26.055Z,80.70
2022-12-03T06:39:53.677Z,81.60
2022-12-03T06:42:21.330Z,81.51
2022-12-03T06:44:49.286Z,81.54
2022-12-03T06:47:16.884Z,81.78
2022-12-03T06:49:44.477Z,81.33
2022-12-03T06:52:12.072Z,81.46
2022-12-03T06:54:39.729Z,81.64
2022-12-03T06:57:07.659Z,81.57
2022-12-03T06:59:37.617Z,81.11
2022-12-03T07:02:05.296Z,81.41
2022-12-03T07:04:33.016Z,81.16
2022-12-03T07:07:00.686Z,81.34
2022-12-03T07:09:28.662Z,81.80
2022-12-03T07:11:56.283Z,81.29
2022-12-03T07:14:23.856Z,81.16
2022-12-03T07:16:51.451Z,81.16
2022-12-03T07:19:27.570Z,81.16
2022-12-03T07:21:58.726Z,81.64
2022-12-03T07:24:26.341Z,81.32
2022-12-03T07:26:53.985Z,81.55
2022-12-03T07:29:23.544Z,81.57
2022-12-03T07:31:51.349Z,80.69
2022-12-03T07:34:19.051Z,80.93
2022-12-03T07:36:46.684Z,81.32
2022-12-03T07:39:14.283Z,81.27
2022-12-03T07:41:43.019Z,81.45
2022-12-03T07:44:14.335Z,81.50
2022-12-03T07:46:42.712Z,81.26
2022-12-03T07:49:10.365Z,80.83
2022-12-03T07:51:37.954Z,80.50
2022-12-03T07:54:06.370Z,81.22
2022-12-03T07:56:33.935Z,81.10
2022-12-03T07:59:02.004Z,80.48
2022-12-03T08:01:30.147Z,81.03
2022-12-03T08:04:06.158Z,80.45
2022-12-03T08:06:36.362Z,81.03
2022-12-03T08:09:04.347Z,80.10
2022-12-03T08:11:31.999Z,80.46
2022-12-03T08:13:59.648Z,80.51
2022-12-03T08:16:27.356Z,80.19
2022-12-03T08:18:57.629Z,80.59
2022-12-03T08:21:25.635Z,80.41
2022-12-03T08:23:53.253Z,80.31
2022-12-03T08:26:20.919Z,80.76
2022-12-03T08:28:48.542Z,80.76
2022-12-03T08:31:18.722Z,80.04
2022-12-03T08:33:46.850Z,80.44
2022-12-03T08:36:14.628Z,80.49
2022-12-03T08:38:42.230Z,80.18
2022-12-03T08:41:09.938Z,79.79
2022-12-03T08:43:42.146Z,80.02
2022-12-03T08:46:09.765Z,80.07
2022-12-03T08:48:38.144Z,80.26
2022-12-03T08:51:05.961Z,79.71
2022-12-03T08:53:33.843Z,79.82
2022-12-03T08:56:03.096Z,79.38
2022-12-03T08:58:31.098Z,80.07
2022-12-03T09:00:58.995Z,79.45
2022-12-03T09:03:26.754Z,79.14
2022-12-03T09:05:54.970Z,79.47
2022-12-03T09:08:22.683Z,79.17
2022-12-03T09:10:50.676Z,79.61
2022-12-03T09:13:18.511Z,79.53
2022-12-03T09:15:46.218Z,79.09
2022-12-03T09:18:14.541Z,78.85
2022-12-03T09:20:44.010Z,79.16
2022-12-03T09:23:11.960Z,78.68
2022-12-03T09:25:39.638Z,78.56
2022-12-03T09:28:07.794Z,78.83
2022-12-03T09:30:35.514Z,78.54
2022-12-03T09:33:05.825Z,78.22
2022-12-03T09:35:33.961Z,78.68
2022-12-03T09:38:01.729Z,78.13
2022-12-03T09:40:29.424Z,78.33
2022-12-03T09:42:58.833Z,78.10
2022-12-03T09:45:27.936Z,77.94
2022-12-03T09:47:56.052Z,78.17
2022-12-03T09:50:24.432Z,78.01
2022-12-03T09:52:52.483Z,78.20
2022-12-03T09:55:23.303Z,78.40
2022-12-03T09:57:51.862Z,78.26
2022-12-03T10:00:20.001Z,77.82
2022-12-03T10:02:47.915Z,77.99
2022-12-03T10:05:15.794Z,78.19
2022-12-03T10:07:43.700Z,78.27
2022-12-03T10:10:12.633Z,78.08
2022-12-03T10:12:41.635Z,77.58
2022-12-03T10:15:09.391Z,78.50
2022-12-03T10:17:37.163Z,78.00
2022-12-03T10:20:04.977Z,77.66
2022-12-03T10:22:37.622Z,78.35
2022-12-03T10:25:05.959Z,78.03
2022-12-03T10:27:33.646Z,78.27
2022-12-03T10:30:01.516Z,78.29
2022-12-03T10:32:29.397Z,77.52
2022-12-03T10:35:01.157Z,77.24
2022-12-03T10:37:29.442Z,77.25
2022-12-03T10:39:57.207Z,77.83
2022-12-03T10:42:24.996Z,77.32
2022-12-03T10:44:54.169Z,77.58
2022-12-03T10:47:25.256Z,77.84
2022-12-03T10:49:53.312Z,77.50
2022-12-03T10:52:25.675Z,77.42
2022-12-03T10:54:54.033Z,77.40
2022-12-03T10:57:22.396Z,77.89
2022-12-03T10:59:50.228Z,77.69
2022-12-03T11:02:18.606Z,77.71
2022-12-03T11:04:46.397Z,77.07
2022-12-03T11:07:14.120Z,77.33
2022-12-03T11:09:41.777Z,77.04
2022-12-03T11:12:10.415Z,77.40
2022-12-03T11:14:38.902Z,77.53
2022-12-03T11:17:06.840Z,77.15
2022-12-03T11:19:34.933Z,77.19
2022-12-03T11:22:02.706Z,76.69
2022-12-03T11:24:31.013Z,76.81
2022-12-03T11:26:59.605Z,76.71
2022-12-03T11:29:27.608Z,77.06
2022-12-03T11:31:55.373Z,77.15
2022-12-03T11:34:23.331Z,77.44
2022-12-03T11:37:01.442Z,76.64
2022-12-03T11:39:30.464Z,77.24
2022-12-03T11:41:58.242Z,76.96
2022-12-03T11:44:26.097Z,77.28
2022-12-03T11:46:54.738Z,77.19
2022-12-03T11:49:22.689Z,76.71
2022-12-03T11:51:51.008Z,76.80
2022-12-03T11:54:19.074Z,77.07
2022-12-03T11:56:47.608Z,77.33
2022-12-03T11:59:19.602Z,77.30
2022-12-03T12:01:47.470Z,77.38
2022-12-03T12:04:15.733Z,76.87
2022-12-03T12:06:43.771Z,77.07
2022-12-03T12:09:11.505Z,77.49
2022-12-03T12:11:41.824Z,76.80
2022-12-03T12:14:09.872Z,77.19
2022-12-03T12:16:38.321Z,77.17
2022-12-03T12:19:06.205Z,76.92
2022-12-03T12:21:34.627Z,77.56
2022-12-03T12:24:02.725Z,77.15
2022-12-03T12:26:31.155Z,77.16
2022-12-03T12:28:59.894Z,77.12
2022-12-03T12:31:27.808Z,76.95
2022-12-03T12:33:55.759Z,77.01
2022-12-03T12:36:25.378Z,77.37
2022-12-03T12:38:53.330Z,76.61
2022-12-03T12:41:21.281Z,76.90
2022-12-03T12:43:49.821Z,76.96
2022-12-03T12:46:46.602Z,77.22
2022-12-03T12:49:06.561Z,77.44
2022-12-03T12:51:34.510Z,77.49
2022-12-03T12:54:02.321Z,76.75
2022-12-03T12:56:30.788Z,76.96
2022-12-03T12:58:59.341Z,76.99
2022-12-03T13:01:28.780Z,77.15
2022-12-03T13:03:57.710Z,77.62
2022-12-03T13:06:25.525Z,77.49
2022-12-03T13:08:53.290Z,77.47
2022-12-03T13:11:21.419Z,77.08
2022-12-03T13:13:50.899Z,77.38
2022-12-03T13:16:19.231Z,77.38
2022-12-03T13:18:47.319Z,77.04
2022-12-03T13:21:15.302Z,77.41
2022-12-03T13:23:43.159Z,76.99
2022-12-03T13:26:30.404Z,77.35
2022-12-03T13:29:02.893Z,77.09
2022-12-03T13:31:31.001Z,77.42
2022-12-03T13:33:58.765Z,76.91
2022-12-03T13:36:28.282Z,77.42
2022-12-03T13:38:56.281Z,77.53
2022-12-03T13:41:41.975Z,77.00
2022-12-03T13:44:09.893Z,77.36
2022-12-03T13:46:39.225Z,77.47
2022-12-03T13:49:07.027Z,77.54
2022-12-03T13:51:34.989Z,77.43
2022-12-03T13:54:02.865Z,77.29
2022-12-03T13:56:30.817Z,77.29
2022-12-03T13:59:00.591Z,77.43
2022-12-03T14:01:28.565Z,76.94
2022-12-03T14:03:56.451Z,77.47
2022-12-03T14:06:24.763Z,77.56
2022-12-03T14:08:53.072Z,77.35
2022-12-03T14:11:34.715Z,77.44
2022-12-03T14:14:02.498Z,76.76
2022-12-03T14:16:30.295Z,77.09
2022-12-03T14:18:58.186Z,77.82
2022-12-03T14:21:25.958Z,77.46
2022-12-03T14:23:55.570Z,76.94
2022-12-03T14:26:23.482Z,77.33
2022-12-03T14:28:51.752Z,76.76
2022-12-03T14:31:19.601Z,77.26
2022-12-03T14:33:47.473Z,77.64
2022-12-03T14:36:16.407Z,77.67
2022-12-03T14:38:44.354Z,77.66
2022-12-03T14:41:26.657Z,77.46
2022-12-03T14:43:54.625Z,77.40
2022-12-03T14:46:22.550Z,77.45
2022-12-03T14:48:50.576Z,77.42
2022-12-03T14:51:18.388Z,77.80
2022-12-03T14:53:46.555Z,77.45
2022-12-03T14:56:14.457Z,77.44
2022-12-03T14:58:42.346Z,77.75
2022-12-03T15:01:10.404Z,77.41
2022-12-03T15:03:38.427Z,76.94
2022-12-03T15:06:06.988Z,77.04
2022-12-03T15:08:34.784Z,77.46
2022-12-03T15:11:06.917Z,77.42
2022-12-03T15:13:34.924Z,77.87
2022-12-03T15:16:02.732Z,77.85
2022-12-03T15:18:31.538Z,77.39
2022-12-03T15:20:59.376Z,77.62
2022-12-03T15:23:29.059Z,77.89
2022-12-03T15:25:57.287Z,77.26
2022-12-03T15:28:25.151Z,77.36
2022-12-03T15:30:53.778Z,78.03
2022-12-03T15:33:22.204Z,77.57
2022-12-03T15:35:52.627Z,78.17
2022-12-03T15:38:20.697Z,77.74
2022-12-03T15:40:48.492Z,77.37
2022-12-03T15:43:17.051Z,77.46
2022-12-03T15:45:45.009Z,77.43
2022-12-03T15:48:14.410Z,77.48
2022-12-03T15:50:42.174Z,77.45
2022-12-03T15:53:09.962Z,77.72
2022-12-03T15:55:38.746Z,77.57
2022-12-03T15:58:06.739Z,77.53
2022-12-03T16:00:36.468Z,77.79
2022-12-03T16:03:04.627Z,77.53
2022-12-03T16:05:32.521Z,77.74
2022-12-03T16:08:00.798Z,77.53
2022-12-03T16:10:28.916Z,78.09
2022-12-03T16:12:56.716Z,77.59
2022-12-03T16:15:27.208Z,77.35
2022-12-03T16:17:55.507Z,77.64
2022-12-03T16:20:23.674Z,77.32
2022-12-03T16:22:51.494Z,77.68
2022-12-03T16:25:20.432Z,77.49
2022-12-03T16:27:48.147Z,78.15
2022-12-03T16:30:16.065Z,77.53
2022-12-03T16:32:43.997Z,77.93
2022-12-03T16:35:11.962Z,77.81
2022-12-03T16:37:40.600Z,78.06
2022-12-03T16:40:09.249Z,77.62
2022-12-03T16:42:37.965Z,77.52
2022-12-03T16:45:19.768Z,77.93
2022-12-03T16:47:47.735Z,77.65
2022-12-03T16:50:21.796Z,77.44
2022-12-03T16:52:52.530Z,77.89
2022-12-03T16:55:20.755Z,77.87
2022-12-03T16:57:48.530Z,77.76
2022-12-03T17:00:16.817Z,78.40
2022-12-03T17:02:44.840Z,77.97
2022-12-03T17:05:12.844Z,77.59
2022-12-03T17:07:41.392Z,77.96
2022-12-03T17:10:10.187Z,77.60
2022-12-03T17:13:07.573Z,78.18
2022-12-03T17:15:25.980Z,77.68
2022-12-03T17:17:54.390Z,77.43
2022-12-03T17:20:22.660Z,78.05
2022-12-03T17:22:50.581Z,77.68
2022-12-03T17:25:18.481Z,77.96
2022-12-03T17:27:46.438Z,78.19
2022-12-03T17:30:14.852Z,78.09
2022-12-03T17:32:42.732Z,77.97
2022-12-03T17:35:10.604Z,77.62
2022-12-03T17:37:38.584Z,77.72
2022-12-03T17:40:06.512Z,77.97
2022-12-03T17:42:35.191Z,78.07
2022-12-03T17:45:06.566Z,78.18
2022-12-03T17:47:34.593Z,77.80
2022-12-03T17:50:02.549Z,77.88
2022-12-03T17:52:30.505Z,77.41
2022-12-03T17:55:23.639Z,78.25
2022-12-03T17:57:46.693Z,77.62
2022-12-03T18:00:14.559Z,77.66
2022-12-03T18:02:42.760Z,77.70
2022-12-03T18:05:10.779Z,78.28
2022-12-03T18:07:38.805Z,78.45
2022-12-03T18:10:06.746Z,78.22
2022-12-03T18:12:34.896Z,77.79
2022-12-03T18:15:02.662Z,77.90
2022-12-03T18:17:30.653Z,77.96
2022-12-03T18:19:58.671Z,78.38
2022-12-03T18:22:27.882Z,77.87
2022-12-03T18:24:56.368Z,78.08
2022-12-03T18:27:24.382Z,78.61
2022-12-03T18:29:52.974Z,77.62
2022-12-03T18:32:29.006Z,77.98
2022-12-03T18:34:57.796Z,77.97
2022-12-03T18:37:25.716Z,78.08
2022-12-03T18:39:54.501Z,77.81
2022-12-03T18:42:22.782Z,77.90
2022-12-03T18:44:50.619Z,78.50
2022-12-03T18:47:20.337Z,77.83
2022-12-03T18:49:48.240Z,77.70
2022-12-03T18:52:16.510Z,78.10
2022-12-03T18:54:44.301Z,78.02
2022-12-03T18:57:12.344Z,78.44
2022-12-03T18:59:41.195Z,78.06
2022-12-03T19:02:09.223Z,77.97
2022-12-03T19:04:38.007Z,77.88
2022-12-03T19:07:06.350Z,78.09
2022-12-03T19:09:34.211Z,78.16
2022-12-03T19:12:07.597Z,78.45
2022-12-03T19:14:39.532Z,78.05
2022-12-03T19:17:07.491Z,78.43
2022-12-03T19:19:35.507Z,78.31
2022-12-03T19:22:05.290Z,78.04
2022-12-03T19:24:33.170Z,78.41
2022-12-03T19:27:01.568Z,78.03
2022-12-03T19:29:29.421Z,78.31
2022-12-03T19:31:57.460Z,78.43
2022-12-03T19:34:25.358Z,78.76
2022-12-03T19:36:53.281Z,78.11
2022-12-03T19:39:21.665Z,78.07
2022-12-03T19:41:49.585Z,78.35
2022-12-03T19:44:17.339Z,78.15
2022-12-03T19:46:45.966Z,78.02
2022-12-03T19:49:13.850Z,78.09
2022-12-03T19:51:42.079Z,78.61
2022-12-03T19:54:10.175Z,78.24
2022-12-03T19:56:38.022Z,78.28
2022-12-03T19:59:07.904Z,78.06
2022-12-03T20:01:35.965Z,78.05
2022-12-03T20:04:04.575Z,78.61
2022-12-03T20:06:32.326Z,78.33
2022-12-03T20:09:00.798Z,78.10
2022-12-03T20:11:28.613Z,78.68
2022-12-03T20:13:56.402Z,78.61
2022-12-03T20:16:24.940Z,78.76
2022-12-03T20:18:52.979Z,78.30
2022-12-03T20:21:20.892Z,78.91
2022-12-03T20:23:48.902Z,78.79
2022-12-03T20:26:16.837Z,78.45
2022-12-03T20:28:45.238Z,77.98
2022-12-03T20:31:13.801Z,78.42
2022-12-03T20:33:41.670Z,78.29
2022-12-03T20:36:11.787Z,78.86
2022-12-03T20:38:39.817Z,78.24
2022-12-03T20:41:08.293Z,78.02
2022-12-03T20:43:36.095Z,78.30
2022-12-03T20:46:04.093Z,78.57
2022-12-03T20:48:31.983Z,78.39
2022-12-03T20:50:59.884Z,78.08
2022-12-03T20:53:28.709Z,78.71
2022-12-03T20:55:58.084Z,78.30
2022-12-03T20:58:25.976Z,78.30
2022-12-03T21:00:56.426Z,78.06
2022-12-03T21:03:24.482Z,78.68
2022-12-03T21:05:52.909Z,78.09
2022-12-03T21:08:39.276Z,78.35
2022-12-03T21:11:10.290Z,78.04
2022-12-03T21:13:42.248Z,78.80
2022-12-03T21:16:11.037Z,78.28
2022-12-03T21:18:38.907Z,78.15
2022-12-03T21:21:06.924Z,78.72
2022-12-03T21:23:34.753Z,78.38
2022-12-03T21:26:02.621Z,78.18
2022-12-03T21:28:31.275Z,78.24
2022-12-03T21:30:59.074Z,78.35
2022-12-03T21:33:26.973Z,78.35
2022-12-03T21:35:55.379Z,77.96
2022-12-03T21:38:23.297Z,78.75
2022-12-03T21:40:51.775Z,78.53
2022-12-03T21:43:19.749Z,78.53
2022-12-03T21:45:47.652Z,78.80
2022-12-03T21:48:15.506Z,78.23
2022-12-03T21:50:43.352Z,78.33
2022-12-03T21:53:11.533Z,78.44
2022-12-03T21:55:39.451Z,78.50
2022-12-03T21:58:07.818Z,79.01
2022-12-03T22:00:38.485Z,78.72
2022-12-03T22:03:06.354Z,78.82
2022-12-03T22:05:34.796Z,78.52
2022-12-03T22:08:02.877Z,78.24
2022-12-03T22:10:30.734Z,79.13
2022-12-03T22:13:00.391Z,77.92
2022-12-03T22:15:28.270Z,78.59
2022-12-03T22:17:56.603Z,78.20
2022-12-03T22:20:25.073Z,78.66
2022-12-03T22:22:52.977Z,78.27
2022-12-03T22:25:23.487Z,78.38
2022-12-03T22:27:51.334Z,78.26
2022-12-03T22:30:19.468Z,79.15
2022-12-03T22:32:47.193Z,78.35
2022-12-03T22:35:15.203Z,78.82
2022-12-03T22:37:43.183Z,78.95
2022-12-03T22:40:10.942Z,78.88
2022-12-03T22:42:39.919Z,78.61
2022-12-03T22:45:07.830Z,78.83
2022-12-03T22:47:35.628Z,78.49
2022-12-03T22:50:03.638Z,78.46
2022-12-03T22:52:31.421Z,78.36
2022-12-03T22:54:59.642Z,79.08
2022-12-03T22:57:27.570Z,78.03
2022-12-03T22:59:55.720Z,78.35
2022-12-03T23:02:23.735Z,78.52
2022-12-03T23:04:52.111Z,79.11
2022-12-03T23:07:19.910Z,78.58
2022-12-03T23:09:47.681Z,78.46
2022-12-03T23:12:15.787Z,78.87
2022-12-03T23:14:44.102Z,78.25
2022-12-03T23:17:11.842Z,77.95
2022-12-03T23:19:39.899Z,78.63
2022-12-03T23:22:07.855Z,78.78
2022-12-03T23:24:35.786Z,78.91
2022-12-03T23:27:08.125Z,78.44
2022-12-03T23:29:35.901Z,78.42
2022-12-03T23:32:03.752Z,78.17
2022-12-03T23:34:31.685Z,78.79
2022-12-03T23:36:59.452Z,78.71
2022-12-03T23:39:29.150Z,78.90
2022-12-03T23:41:56.971Z,78.34
2022-12-03T23:44:25.408Z,78.85
2022-12-03T23:46:53.195Z,78.59
2022-12-03T23:49:21.051Z,78.13
2022-12-03T23:51:49.949Z,78.45
2022-12-03T23:54:17.646Z,79.06
2022-12-03T23:56:46.745Z,78.83
2022-12-03T23:59:14.819Z,78.50
